Time;durP1;ratioP1;P1;durP2;ratioP2;P2;SDS_P1;SDS_P2;PMS_P1;PMS_P2;Temp;Humidity;BMP_temperature;BMP_pressure;BME280_temperature;BME280_humidity;BME280_pressure;Samples;Min_cycle;Max_cycle;Signal;HPM_P1;HPM_P2
2022/03/12 00:01:51;;;;;;;20.20;10.40;;;;;;;9.40;41.85;101209.47;5031695;28;20030;-81
2022/03/12 00:04:17;;;;;;;20.47;10.27;;;;;;;9.37;41.91;101214.66;5032780;28;20386;-81
2022/03/12 00:06:42;;;;;;;22.30;11.50;;;;;;;9.29;41.93;101207.81;5033138;28;20018;-82
2022/03/12 00:09:07;;;;;;;20.80;10.30;;;;;;;9.29;42.23;101216.41;5032355;28;20056;-82
2022/03/12 00:11:35;;;;;;;20.10;10.27;;;;;;;9.43;41.88;101221.53;5032339;28;20040;-81
2022/03/12 00:14:03;;;;;;;21.50;10.60;;;;;;;9.26;42.75;101216.44;5033058;28;20029;-82
2022/03/12 00:16:29;;;;;;;19.55;10.10;;;;;;;9.24;42.49;101213.84;5030899;28;20064;-82
2022/03/12 00:19:01;;;;;;;20.30;10.32;;;;;;;9.24;42.87;101218.16;5014227;28;20191;-82
2022/03/12 00:21:30;;;;;;;20.08;10.23;;;;;;;9.20;42.74;101224.22;5009190;28;20022;-82
2022/03/12 00:23:59;;;;;;;21.63;10.30;;;;;;;9.29;42.15;101224.19;5012112;28;20034;-80
2022/03/12 00:26:25;;;;;;;19.20;9.85;;;;;;;9.20;42.54;101227.66;5012869;28;20083;-82
2022/03/12 00:28:57;;;;;;;19.67;9.75;;;;;;;9.18;43.12;101225.97;5012340;28;20037;-82
2022/03/12 00:31:23;;;;;;;22.60;10.60;;;;;;;9.20;43.19;101230.25;5012758;28;20022;-82
2022/03/12 00:33:49;;;;;;;19.63;10.23;;;;;;;9.16;43.30;101238.91;5012972;28;20084;-82
2022/03/12 00:36:17;;;;;;;18.88;9.63;;;;;;;9.12;43.32;101232.03;5013464;28;20021;-82
2022/03/12 00:38:43;;;;;;;19.60;9.73;;;;;;;9.23;42.81;101235.44;5031005;28;20390;-82
2022/03/12 00:41:09;;;;;;;21.05;10.70;;;;;;;9.15;43.45;101232.03;5032584;28;20025;-83
2022/03/12 00:43:34;;;;;;;20.63;9.93;;;;;;;9.18;43.00;101244.94;5031571;28;20029;-82
2022/03/12 00:46:02;;;;;;;20.27;10.00;;;;;;;9.18;43.19;101233.72;5021412;28;20045;-82
2022/03/12 00:48:28;;;;;;;20.02;9.68;;;;;;;9.13;43.41;101244.09;5012174;28;20022;-82
2022/03/12 00:50:53;;;;;;;19.23;9.40;;;;;;;9.14;43.73;101255.31;5012063;28;20068;-82
2022/03/12 00:53:18;;;;;;;18.77;9.35;;;;;;;9.31;43.21;101248.38;5011933;28;20026;-82
2022/03/12 00:55:44;;;;;;;21.10;10.37;;;;;;;9.20;43.84;101250.97;5012503;28;20025;-82
2022/03/12 00:58:09;;;;;;;19.97;10.00;;;;;;;9.15;44.57;101241.50;5012135;28;20025;-82
2022/03/12 01:00:34;;;;;;;21.43;10.73;;;;;;;9.22;43.85;101243.22;5012553;28;20030;-83
2022/03/12 01:03:01;;;;;;;21.67;11.03;;;;;;;9.23;43.97;101250.13;5012724;28;20046;-82
2022/03/12 01:05:45;;;;;;;22.02;10.70;;;;;;;9.20;44.46;101247.53;5011223;28;20382;-83
2022/03/12 01:08:11;;;;;;;20.73;10.50;;;;;;;9.19;44.24;101249.25;5012627;28;20137;-82
2022/03/12 01:10:36;;;;;;;20.07;10.23;;;;;;;9.13;44.52;101249.28;5011889;28;20533;-82
2022/03/12 01:13:02;;;;;;;20.20;10.70;;;;;;;9.13;44.56;101249.28;5012318;28;20370;-82
2022/03/12 01:15:28;;;;;;;20.03;10.07;;;;;;;9.10;45.56;101249.28;5017935;28;20030;-82
2022/03/12 01:17:53;;;;;;;20.50;10.40;;;;;;;9.09;45.23;101242.38;5029066;28;20049;-82
2022/03/12 01:20:21;;;;;;;20.77;10.40;;;;;;;9.09;46.29;101247.56;5032127;28;20051;-82
2022/03/12 01:22:46;;;;;;;20.40;10.00;;;;;;;9.08;46.34;101251.88;5032340;28;20033;-82
2022/03/12 01:25:11;;;;;;;17.80;8.77;;;;;;;9.07;45.32;101252.75;5031734;28;20033;-82
2022/03/12 01:27:37;;;;;;;20.37;9.80;;;;;;;9.12;45.84;101253.59;5032156;28;20021;-82
2022/03/12 01:30:04;;;;;;;18.47;9.53;;;;;;;9.11;45.91;101256.19;5032450;28;20490;-82
2022/03/12 01:32:29;;;;;;;19.42;9.55;;;;;;;9.15;45.73;101264.81;5030461;28;20117;-83
2022/03/12 01:34:55;;;;;;;20.20;10.60;;;;;;;9.16;46.51;101269.13;5032494;28;20186;-82
2022/03/12 01:37:20;;;;;;;21.02;11.10;;;;;;;9.11;47.72;101261.38;5035297;28;20021;-83
2022/03/12 01:39:49;;;;;;;19.60;9.80;;;;;;;9.07;46.98;101270.00;5035174;28;20029;-83
2022/03/12 01:42:15;;;;;;;19.35;9.63;;;;;;;9.03;47.33;101269.13;5035651;28;20103;-83
2022/03/12 01:44:42;;;;;;;20.17;10.13;;;;;;;9.17;47.48;101270.84;5019532;28;20037;-82
2022/03/12 01:47:09;;;;;;;20.90;10.80;;;;;;;9.12;47.80;101270.84;5014781;28;20486;-82
2022/03/12 01:49:34;;;;;;;21.17;11.18;;;;;;;9.10;48.32;101270.00;5015542;28;20041;-83
2022/03/12 01:52:02;;;;;;;21.13;11.00;;;;;;;9.11;48.66;101272.59;5015984;28;20026;-82
2022/03/12 01:54:29;;;;;;;20.70;10.80;;;;;;;8.97;49.42;101271.75;5015018;28;20034;-83
2022/03/12 01:56:56;;;;;;;20.10;9.95;;;;;;;8.92;49.30;101276.06;5015946;28;20018;-83
2022/03/12 01:59:22;;;;;;;19.63;8.85;;;;;;;8.97;49.36;101274.34;5015661;28;20021;-82
2022/03/12 02:01:52;;;;;;;19.10;9.30;;;;;;;8.84;51.08;101267.47;5014643;28;20030;-83
2022/03/12 02:04:22;;;;;;;19.40;9.20;;;;;;;8.77;50.43;101280.41;5015408;28;20494;-83
2022/03/12 02:06:50;;;;;;;18.40;8.55;;;;;;;8.74;52.54;101276.94;5015465;28;20025;-83
2022/03/12 02:09:17;;;;;;;17.02;7.97;;;;;;;8.68;52.85;101272.63;5028763;28;20025;-82
2022/03/12 02:11:48;;;;;;;17.02;7.93;;;;;;;8.65;51.16;101275.25;5035167;28;20080;-83
2022/03/12 02:14:16;;;;;;;18.77;8.90;;;;;;;8.62;51.29;101270.06;5033833;28;20044;-83
2022/03/12 02:16:49;;;;;;;20.40;10.05;;;;;;;8.62;52.17;101270.91;5034914;28;20081;-84
2022/03/12 02:19:14;;;;;;;17.23;8.45;;;;;;;8.59;51.25;101270.06;5035056;28;20078;-83
2022/03/12 02:21:49;;;;;;;18.83;9.63;;;;;;;8.58;51.45;101274.38;5034342;28;20029;-83
2022/03/12 02:24:17;;;;;;;19.55;9.80;;;;;;;8.60;52.21;101274.38;5035070;28;20490;-83
2022/03/12 02:26:44;;;;;;;19.30;9.73;;;;;;;8.54;51.96;101279.56;5034874;28;20037;-83
2022/03/12 02:29:12;;;;;;;20.48;10.05;;;;;;;8.53;52.99;101278.69;5034247;28;20036;-83
2022/03/12 02:31:48;;;;;;;20.13;10.32;;;;;;;8.57;51.86;101266.59;5034779;28;20096;-83
2022/03/12 02:34:19;;;;;;;18.75;9.68;;;;;;;8.54;51.94;101275.22;5034005;28;20049;-82
2022/03/12 02:36:44;;;;;;;19.23;9.55;;;;;;;8.50;53.54;101269.19;5033347;28;20033;-83
2022/03/12 02:39:11;;;;;;;18.83;9.03;;;;;;;8.52;51.97;101276.94;5034578;28;20544;-83
2022/03/12 02:41:36;;;;;;;21.52;11.00;;;;;;;8.63;51.22;101270.06;5033982;28;20048;-82
2022/03/12 02:44:01;;;;;;;21.60;11.07;;;;;;;8.58;52.20;101281.25;5034147;28;20485;-83
2022/03/12 02:46:29;;;;;;;21.60;10.57;;;;;;;8.55;52.64;101282.13;5033427;28;20028;-83
2022/03/12 02:48:56;;;;;;;19.88;9.65;;;;;;;8.53;52.18;101283.84;5033930;28;20108;-82
2022/03/12 02:51:22;;;;;;;18.67;9.20;;;;;;;8.55;51.87;101291.63;5033726;28;20052;-82
2022/03/12 02:53:50;;;;;;;19.20;9.90;;;;;;;8.56;52.36;101295.91;5034388;28;20022;-82
2022/03/12 02:56:15;;;;;;;19.60;9.45;;;;;;;8.53;52.29;101294.19;5031603;28;20022;-83
2022/03/12 02:58:41;;;;;;;21.27;10.83;;;;;;;8.60;51.93;101297.66;5034295;28;20109;-83
2022/03/12 03:01:06;;;;;;;18.67;9.03;;;;;;;8.59;51.37;101301.97;5034593;28;20022;-83
2022/03/12 03:03:34;;;;;;;20.07;10.07;;;;;;;8.57;52.00;101303.69;5033062;28;20428;-82
2022/03/12 03:05:59;;;;;;;20.10;9.60;;;;;;;8.56;51.96;101307.16;5034216;28;20044;-83
2022/03/12 03:08:25;;;;;;;18.97;9.27;;;;;;;8.57;51.53;101301.13;5033990;28;20025;-83
2022/03/12 03:10:54;;;;;;;19.63;9.53;;;;;;;8.56;51.71;101295.91;5033017;28;20130;-83
2022/03/12 03:13:20;;;;;;;18.75;8.57;;;;;;;8.61;51.42;101297.66;5013966;28;20030;-83
2022/03/12 03:16:00;;;;;;;16.95;8.55;;;;;;;8.51;51.53;101301.09;5014138;28;20053;-82
2022/03/12 03:18:30;;;;;;;18.17;8.57;;;;;;;8.46;52.32;101295.88;5013243;28;20041;-83
2022/03/12 03:20:57;;;;;;;19.23;8.98;;;;;;;8.44;51.69;101310.56;5013943;28;20076;-83
2022/03/12 03:23:24;;;;;;;18.98;9.18;;;;;;;8.44;51.84;101314.88;5013859;28;20030;-83
2022/03/12 03:25:50;;;;;;;;;;;;;;;8.35;51.75;101316.59;5013882;28;20050;-83
2022/03/12 03:28:15;;;;;;;18.07;8.27;;;;;;;8.32;51.80;101306.22;5013745;28;19981;-83
2022/03/12 03:30:41;;;;;;;18.33;8.38;;;;;;;8.28;51.84;101309.66;5013574;28;20057;-82
2022/03/12 03:33:10;;;;;;;17.80;8.57;;;;;;;8.21;52.65;101320.00;5013123;28;20410;-83
2022/03/12 03:35:38;;;;;;;19.02;8.80;;;;;;;8.18;52.17;101320.84;5013251;28;20076;-83
2022/03/12 03:38:03;;;;;;;17.90;8.25;;;;;;;8.09;52.80;101313.06;5013435;28;20029;-82
2022/03/12 03:40:31;;;;;;;16.47;7.70;;;;;;;8.05;53.64;101327.72;5026149;28;20545;-84
2022/03/12 03:42:59;;;;;;;16.40;7.68;;;;;;;7.98;52.79;101331.16;5033415;28;20025;-83
2022/03/12 03:45:27;;;;;;;15.73;7.38;;;;;;;8.01;52.19;101325.97;5036526;28;20036;-84
2022/03/12 03:47:54;;;;;;;15.07;6.78;;;;;;;7.88;53.57;101322.50;5033197;28;20032;-83
2022/03/12 03:50:25;;;;;;;14.82;6.28;;;;;;;7.79;54.24;101323.31;5033088;28;20079;-82
2022/03/12 03:52:50;;;;;;;13.10;6.00;;;;;;;7.71;54.04;101325.84;5033317;28;20033;-83
2022/03/12 03:55:15;;;;;;;12.40;5.60;;;;;;;7.65;54.53;101332.75;5034852;28;20465;-83
2022/03/12 03:57:41;;;;;;;10.52;5.30;;;;;;;7.56;55.17;101334.41;5040052;28;20047;-83
2022/03/12 04:00:10;;;;;;;11.20;5.32;;;;;;;7.49;55.54;101337.81;5043875;28;20508;-83
2022/03/12 04:02:36;;;;;;;9.05;4.65;;;;;;;7.45;54.94;101340.38;5034198;28;20041;-82
2022/03/12 04:05:01;;;;;;;10.50;4.70;;;;;;;7.40;55.83;101341.22;5034428;28;20469;-83
2022/03/12 04:07:26;;;;;;;8.97;4.70;;;;;;;7.35;55.67;101334.28;5032004;28;20053;-83
2022/03/12 04:09:55;;;;;;;10.50;4.90;;;;;;;7.28;56.64;101335.13;5032875;28;20020;-83
2022/03/12 04:12:20;;;;;;;12.57;5.93;;;;;;;7.29;56.17;101340.28;5032778;28;20025;-83
2022/03/12 04:14:45;;;;;;;13.57;6.13;;;;;;;7.36;55.93;101346.34;5032142;28;20112;-83
2022/03/12 04:17:16;;;;;;;13.07;6.10;;;;;;;7.25;55.99;101348.88;5032410;28;20096;-83
2022/03/12 04:19:42;;;;;;;13.32;6.10;;;;;;;7.23;56.44;101361.75;5033152;28;20026;-83
2022/03/12 04:22:07;;;;;;;12.00;5.53;;;;;;;7.19;58.70;101356.56;5032393;28;20028;-83
2022/03/12 04:24:33;;;;;;;14.27;6.20;;;;;;;7.14;55.92;101356.53;5032326;28;20018;-84
2022/03/12 04:27:02;;;;;;;15.25;6.72;;;;;;;7.09;57.70;101356.50;5032784;28;20112;-83
2022/03/12 04:29:27;;;;;;;13.13;5.82;;;;;;;7.07;57.78;101352.19;5031456;28;20075;-83
2022/03/12 04:31:52;;;;;;;13.63;6.27;;;;;;;7.07;57.92;101354.78;5032803;28;20021;-83
2022/03/12 04:34:18;;;;;;;13.60;6.17;;;;;;;7.06;56.05;101353.03;5032281;28;20036;-83
2022/03/12 04:36:44;;;;;;;14.37;6.57;;;;;;;7.03;56.97;101353.00;5032431;28;20029;-83
2022/03/12 04:39:11;;;;;;;13.23;5.78;;;;;;;6.97;57.88;101360.72;5014191;28;20033;-83
2022/03/12 04:41:39;;;;;;;11.75;5.50;;;;;;;6.90;58.08;101352.91;5012091;28;20057;-83
2022/03/12 04:44:08;;;;;;;11.77;5.47;;;;;;;6.86;58.73;101361.50;5012894;28;20025;-83
2022/03/12 04:46:34;;;;;;;13.80;6.28;;;;;;;6.91;56.01;101367.53;5012576;28;20040;-83
2022/03/12 04:49:00;;;;;;;13.68;6.18;;;;;;;6.79;59.85;101362.28;5011409;28;20034;-83
2022/03/12 04:51:26;;;;;;;11.27;5.45;;;;;;;6.72;60.26;101365.66;5012567;28;20071;-83
2022/03/12 04:53:56;;;;;;;14.67;6.77;;;;;;;6.67;58.85;101364.75;5012989;28;20128;-83
2022/03/12 04:56:26;;;;;;;14.18;6.35;;;;;;;6.65;58.66;101365.59;5011943;28;20025;-84
2022/03/12 04:58:53;;;;;;;14.15;5.95;;;;;;;6.66;58.58;101369.06;5012724;28;20159;-83
2022/03/12 05:01:20;;;;;;;13.85;6.10;;;;;;;6.65;59.34;101373.31;5012261;28;20490;-83
2022/03/12 05:03:46;;;;;;;11.80;5.60;;;;;;;6.63;57.69;101367.31;5012126;28;20544;-82
2022/03/12 05:06:13;;;;;;;13.07;6.10;;;;;;;6.55;60.67;101379.25;5012871;28;20057;-83
2022/03/12 05:08:39;;;;;;;11.75;5.50;;;;;;;6.52;61.04;101374.09;5026076;28;20061;-83
2022/03/12 05:11:05;;;;;;;11.70;5.80;;;;;;;6.51;58.75;101381.78;5033994;28;20393;-83
2022/03/12 05:13:31;;;;;;;11.93;5.50;;;;;;;6.48;59.25;101380.91;5035149;28;20033;-83
2022/03/12 05:16:03;;;;;;;12.50;5.78;;;;;;;6.44;59.99;101384.31;5036291;28;20418;-83
2022/03/12 05:18:30;;;;;;;13.43;6.20;;;;;;;6.36;61.25;101374.75;5035431;28;20099;-83
2022/03/12 05:20:55;;;;;;;11.93;5.93;;;;;;;6.33;61.93;101375.59;5036407;28;20056;-83
2022/03/12 05:23:21;;;;;;;11.05;5.40;;;;;;;6.31;61.14;101378.13;5035730;28;20434;-83
2022/03/12 05:25:48;;;;;;;11.55;5.60;;;;;;;6.27;61.73;101380.66;5035557;28;20025;-83
2022/03/12 05:28:23;;;;;;;11.98;5.63;;;;;;;6.25;61.80;101395.28;5036083;28;20099;-83
2022/03/12 05:30:49;;;;;;;11.40;5.70;;;;;;;6.22;63.07;101395.22;5035223;28;20492;-83
2022/03/12 05:33:16;;;;;;;12.43;5.53;;;;;;;6.19;63.17;101398.66;5035359;28;20035;-83
2022/03/12 05:35:43;;;;;;;;;;;;;;;6.16;63.21;101407.19;5029583;28;20033;-83
2022/03/12 05:38:11;;;;;;;12.95;5.60;;;;;;;6.14;62.39;101401.16;5015495;28;20221;-83
2022/03/12 05:40:39;;;;;;;14.65;6.10;;;;;;;6.13;61.21;101406.28;5015645;28;20022;-83
2022/03/12 05:43:13;;;;;;;13.60;6.20;;;;;;;6.13;65.22;101409.75;5015926;28;20478;-83
2022/03/12 05:45:39;;;;;;;16.08;7.18;;;;;;;6.16;64.79;101407.19;5014893;28;20034;-82
2022/03/12 05:48:09;;;;;;;14.77;6.60;;;;;;;6.17;67.47;101410.66;5015964;28;20022;-82
2022/03/12 05:50:35;;;;;;;13.50;6.35;;;;;;;6.17;63.89;101418.38;5015623;28;20034;-82
2022/03/12 05:53:01;;;;;;;16.48;7.32;;;;;;;6.17;64.35;101416.66;5015017;28;20026;-83
2022/03/12 05:55:26;;;;;;;17.50;7.40;;;;;;;6.17;67.38;101413.22;5015612;28;20133;-83
2022/03/12 05:57:51;;;;;;;15.97;6.60;;;;;;;6.19;67.55;101419.28;5016293;28;20018;-82
2022/03/12 06:00:18;;;;;;;15.57;7.18;;;;;;;6.20;68.64;101422.69;5019382;28;20378;-82
2022/03/12 06:02:50;;;;;;;16.52;7.15;;;;;;;6.19;68.45;101419.28;5035615;28;20169;-82
2022/03/12 06:05:18;;;;;;;14.27;6.68;;;;;;;6.21;64.22;101429.59;5034688;28;20437;-82
2022/03/12 06:07:45;;;;;;;12.95;6.28;;;;;;;6.20;64.62;101427.84;5034663;28;20031;-83
2022/03/12 06:10:12;;;;;;;11.23;5.40;;;;;;;6.17;67.82;101426.97;5035578;28;20029;-82
2022/03/12 06:12:39;;;;;;;12.20;5.50;;;;;;;6.17;65.22;101426.13;5034748;28;20037;-83
2022/03/12 06:15:05;;;;;;;10.30;5.13;;;;;;;6.17;66.13;101431.28;5034961;28;20033;-83
2022/03/12 06:17:31;;;;;;;10.67;5.17;;;;;;;6.15;65.51;101431.22;5015316;28;20046;-83
2022/03/12 06:19:56;;;;;;;9.20;4.57;;;;;;;6.22;63.68;101429.59;5019507;28;20371;-83
2022/03/12 06:22:21;;;;;;;12.57;5.87;;;;;;;6.25;64.57;101427.06;5029879;28;20064;-82
2022/03/12 06:24:46;;;;;;;13.95;6.10;;;;;;;6.17;67.65;101428.69;5035236;28;20557;-82
2022/03/12 06:27:13;;;;;;;15.13;6.82;;;;;;;6.16;67.97;101440.69;5034287;28;20071;-82
2022/03/12 06:29:39;;;;;;;;;;;;;;;6.17;65.95;101436.41;5035097;28;20029;-82
2022/03/12 06:32:07;;;;;;;15.00;6.13;;;;;;;6.18;68.70;101444.16;5034925;28;19913;-82
2022/03/12 06:34:34;;;;;;;13.88;6.00;;;;;;;6.19;66.33;101445.03;5033768;28;20060;-82
2022/03/12 06:36:59;;;;;;;13.38;5.88;;;;;;;6.20;69.99;101443.31;5034594;28;20092;-82
2022/03/12 06:39:25;;;;;;;14.77;6.55;;;;;;;6.28;67.17;101442.56;5034256;28;20453;-82
2022/03/12 06:41:51;;;;;;;13.05;5.97;;;;;;;6.28;70.19;101442.56;5033591;28;20140;-82
2022/03/12 06:44:18;;;;;;;13.00;5.63;;;;;;;6.32;68.01;101439.16;5034694;28;20028;-81
2022/03/12 06:46:44;;;;;;;13.88;6.60;;;;;;;6.41;68.44;101447.88;5034689;28;20457;-82
2022/03/12 06:49:12;;;;;;;14.40;6.37;;;;;;;6.40;68.89;101452.16;5033625;28;20049;-82
2022/03/12 06:51:38;;;;;;;15.38;6.72;;;;;;;6.47;68.09;101451.38;5034471;28;20026;-82
2022/03/12 06:54:04;;;;;;;13.40;6.13;;;;;;;6.52;68.98;101466.91;5034566;28;20027;-82
2022/03/12 06:56:34;;;;;;;13.33;6.33;;;;;;;6.58;67.85;101466.97;5033694;28;20060;-82
2022/03/12 06:58:59;;;;;;;13.32;6.18;;;;;;;6.69;70.22;101466.22;5034372;28;20029;-82
2022/03/12 07:01:24;;;;;;;11.57;5.63;;;;;;;6.78;68.89;101466.31;5033963;28;20037;-82
2022/03/12 07:14:00;;;;;;;13.00;6.13;;;;;;;7.34;70.42;101482.31;5117834;22;20049;-86
2022/03/12 07:16:26;;;;;;;13.40;5.97;;;;;;;7.35;66.36;101479.78;5059835;28;20484;-81
2022/03/12 07:18:51;;;;;;;12.48;5.95;;;;;;;7.34;70.12;101479.75;5074091;28;20483;-81
2022/03/12 07:21:17;;;;;;;11.87;6.07;;;;;;;7.45;66.52;101477.25;5073477;28;20035;-81
2022/03/12 07:23:42;;;;;;;11.47;6.03;;;;;;;7.33;68.51;101483.16;5071642;28;20051;-81
2022/03/12 07:26:14;;;;;;;13.10;6.05;;;;;;;7.32;69.74;101481.47;5054418;28;20540;-81
2022/03/12 07:28:39;;;;;;;12.02;5.82;;;;;;;7.32;68.33;101491.81;5053241;28;20064;-81
2022/03/12 07:31:07;;;;;;;13.63;6.33;;;;;;;7.33;71.73;101484.06;5065058;28;20032;-80
2022/03/12 07:33:33;;;;;;;13.80;6.38;;;;;;;7.36;73.41;101490.97;5056324;28;20021;-79
2022/03/12 07:36:13;;;;;;;12.57;6.07;;;;;;;7.53;68.12;101496.25;5053014;28;20051;-80
2022/03/12 07:38:39;;;;;;;14.32;6.57;;;;;;;7.51;70.75;101504.00;5060530;28;20016;-79
2022/03/12 07:41:04;;;;;;;14.77;6.50;;;;;;;7.61;69.38;101507.50;5073460;28;20020;-80
2022/03/12 07:46:51;;;;;;;14.07;6.40;;;;;;;7.72;70.28;101510.19;5053069;28;20071;-80
2022/03/12 07:49:16;;;;;;;12.97;6.30;;;;;;;7.81;71.85;101510.25;5053031;28;20053;-79
2022/03/12 07:51:44;;;;;;;12.85;6.10;;;;;;;7.90;70.86;101512.03;5053063;28;20112;-79
2022/03/12 07:54:13;;;;;;;13.52;6.90;;;;;;;8.05;69.43;101519.00;5055906;28;20056;-79
2022/03/12 07:56:38;;;;;;;12.73;6.20;;;;;;;8.11;69.06;101519.03;5072975;28;20029;-84
2022/03/12 07:59:04;;;;;;;14.50;6.70;;;;;;;8.21;71.85;101519.13;5072825;28;20020;-84
2022/03/12 08:01:29;;;;;;;13.87;6.43;;;;;;;8.32;70.94;101520.03;5073097;28;20017;-84
2022/03/12 08:03:54;;;;;;;12.52;6.03;;;;;;;8.39;69.44;101519.19;5073207;28;20054;-84
2022/03/12 08:06:20;;;;;;;11.40;5.80;;;;;;;8.47;70.27;101527.00;5072216;28;20032;-85
2022/03/12 08:08:46;;;;;;;12.27;5.70;;;;;;;8.57;71.33;101535.69;5073162;28;20025;-84
2022/03/12 08:11:30;;;;;;;13.07;6.50;;;;;;;8.67;70.74;101536.59;5073472;28;20119;-85
2022/03/12 08:14:06;;;;;;;11.77;5.60;;;;;;;8.75;70.16;101538.34;5073396;28;20469;-86
2022/03/12 08:16:33;;;;;;;10.43;5.47;;;;;;;8.84;70.74;101544.41;5054555;28;20025;-86
2022/03/12 08:19:07;;;;;;;13.98;6.18;;;;;;;8.98;71.13;101545.31;5052795;28;20021;-86
2022/03/12 08:21:33;;;;;;;11.98;5.80;;;;;;;9.05;69.09;101543.63;5051812;28;20076;-86
2022/03/12 08:23:58;;;;;;;13.48;6.35;;;;;;;9.14;69.34;101545.34;5059226;28;20033;-86
2022/03/12 08:26:25;;;;;;;11.13;5.60;;;;;;;9.14;70.54;101550.53;5072110;28;20115;-86
2022/03/12 08:28:50;;;;;;;12.65;6.13;;;;;;;9.24;69.73;101554.84;5059199;28;20017;-87
2022/03/12 08:31:21;;;;;;;12.83;5.80;;;;;;;9.35;69.07;101554.88;5053117;28;20032;-84
2022/03/12 08:33:47;;;;;;;12.00;5.22;;;;;;;9.43;70.88;101560.94;5052306;28;20113;-84
2022/03/12 08:36:14;;;;;;;13.43;6.03;;;;;;;9.61;68.92;101557.50;5052494;28;20056;-84
2022/03/12 08:38:39;;;;;;;10.60;5.70;;;;;;;9.65;68.92;101558.34;5052307;28;20465;-84
2022/03/12 08:41:06;;;;;;;12.70;6.07;;;;;;;9.76;69.67;101569.56;5051975;28;20017;-84
2022/03/12 08:43:34;;;;;;;11.48;5.50;;;;;;;9.85;68.96;101573.91;5052282;28;20032;-83
2022/03/12 08:46:01;;;;;;;10.88;5.50;;;;;;;9.95;68.27;101567.84;5054193;28;20115;-85
2022/03/12 08:48:26;;;;;;;10.82;5.50;;;;;;;10.00;68.24;101571.31;5056813;28;20469;-89
2022/03/12 08:50:52;;;;;;;10.30;5.13;;;;;;;10.10;68.97;101576.47;5058021;28;20036;-89
2022/03/12 08:53:17;;;;;;;10.77;5.50;;;;;;;10.25;68.14;101575.59;5057854;28;20461;-87
2022/03/12 08:55:42;;;;;;;9.93;5.07;;;;;;;10.28;68.67;101568.66;5057226;28;20029;-89
2022/03/12 08:58:11;;;;;;;9.27;4.97;;;;;;;10.36;68.29;101574.69;5059786;28;20027;-88
2022/03/12 09:00:37;;;;;;;9.23;4.50;;;;;;;10.46;67.48;101572.97;5056762;28;20037;-90
2022/03/12 09:03:04;;;;;;;10.53;5.00;;;;;;;10.56;67.24;101573.81;5056883;28;20035;-89
2022/03/12 09:05:29;;;;;;;9.93;5.03;;;;;;;10.58;66.92;101579.84;5056979;28;20035;-88
2022/03/12 09:07:56;;;;;;;9.27;5.07;;;;;;;10.70;67.11;101572.88;5056689;28;20025;-88
2022/03/12 09:10:23;;;;;;;10.13;5.18;;;;;;;10.67;66.90;101568.56;5056576;28;20049;-88
2022/03/12 09:12:48;;;;;;;;;;;;;;;10.71;67.87;101570.28;5057234;28;20449;-89
2022/03/12 09:15:13;;;;;;;10.57;5.00;;;;;;;10.81;66.76;101576.28;5056562;28;19966;-89
2022/03/12 09:17:39;;;;;;;10.00;4.87;;;;;;;10.88;66.44;101582.31;5056484;28;20100;-87
2022/03/12 09:20:06;;;;;;;10.17;4.87;;;;;;;10.97;66.44;101582.28;5056166;28;20029;-86
2022/03/12 09:22:31;;;;;;;7.75;4.05;;;;;;;11.03;66.08;101579.66;5055259;28;20826;-87
2022/03/12 09:24:57;;;;;;;11.63;4.53;;;;;;;11.12;65.65;101586.53;5055270;28;20131;-86
2022/03/12 09:27:23;;;;;;;10.20;4.10;;;;;;;11.17;65.59;101589.09;5055760;28;20120;-86
2022/03/12 09:29:48;;;;;;;7.20;3.70;;;;;;;11.18;64.98;101586.47;5055720;28;20114;-85
2022/03/12 09:32:13;;;;;;;8.13;3.93;;;;;;;11.20;65.47;101582.16;5055216;28;20025;-86
2022/03/12 09:34:40;;;;;;;7.63;3.63;;;;;;;11.25;64.95;101580.41;5055239;28;20036;-86
2022/03/12 09:37:08;;;;;;;7.30;3.80;;;;;;;11.36;64.83;101592.47;5055340;28;20021;-86
2022/03/12 09:39:34;;;;;;;6.88;3.50;;;;;;;11.43;64.33;101588.94;5055565;28;20077;-86
2022/03/12 09:42:00;;;;;;;8.07;4.07;;;;;;;11.48;63.92;101579.38;5055738;28;20021;-82
2022/03/12 09:44:26;;;;;;;5.80;3.77;;;;;;;11.51;64.05;101581.94;5054390;28;20385;-83
2022/03/12 09:46:51;;;;;;;7.00;3.80;;;;;;;11.58;63.53;101585.34;5054624;28;20033;-83
2022/03/12 09:49:16;;;;;;;6.20;3.07;;;;;;;11.66;63.15;101585.31;5055047;28;20028;-83
2022/03/12 09:51:43;;;;;;;5.67;3.43;;;;;;;11.72;62.84;101580.91;5054647;28;20425;-85
2022/03/12 09:54:09;;;;;;;5.82;3.30;;;;;;;11.81;63.10;101574.78;5055673;28;20032;-86
2022/03/12 09:56:34;;;;;;;6.43;3.27;;;;;;;11.94;61.92;101588.53;5054956;28;20070;-87
2022/03/12 09:59:00;;;;;;;7.03;3.23;;;;;;;11.94;60.32;101580.72;5055137;28;20071;-86
2022/03/12 10:01:25;;;;;;;5.03;3.00;;;;;;;11.96;61.19;101583.31;5055011;28;20043;-86
2022/03/12 10:03:50;;;;;;;5.00;2.87;;;;;;;11.93;60.68;101588.56;5055951;28;20369;-84
2022/03/12 10:06:16;;;;;;;6.20;2.80;;;;;;;11.93;60.36;101599.81;5054220;28;20032;-85
2022/03/12 10:08:42;;;;;;;5.87;2.53;;;;;;;11.92;60.54;101605.03;5055046;28;20029;-83
2022/03/12 10:11:07;;;;;;;5.93;2.83;;;;;;;11.92;59.61;101607.63;5054992;28;20040;-86
2022/03/12 10:13:33;;;;;;;6.30;2.87;;;;;;;11.93;59.75;101606.75;5038802;28;20037;-87
2022/03/12 10:15:59;;;;;;;6.37;2.97;;;;;;;12.03;59.42;101593.69;5042820;28;20029;-87
2022/03/12 10:18:25;;;;;;;6.30;3.23;;;;;;;11.98;59.53;101595.47;5061880;22;20071;-86
2022/03/12 10:20:51;;;;;;;9.05;2.85;;;;;;;12.13;59.47;101602.28;5039363;28;20030;-87
2022/03/12 10:23:17;;;;;;;7.57;2.83;;;;;;;12.21;60.03;101604.81;5054417;28;20024;-86
2022/03/12 10:25:42;;;;;;;5.07;2.70;;;;;;;12.32;59.59;101599.47;5045386;28;20120;-87
2022/03/12 10:28:08;;;;;;;4.93;2.77;;;;;;;12.40;59.12;101602.00;5053752;28;20036;-87
2022/03/12 10:30:34;;;;;;;6.63;3.10;;;;;;;12.43;58.74;101594.16;5054634;28;20036;-87
2022/03/12 10:33:00;;;;;;;5.47;3.03;;;;;;;12.42;58.82;101595.88;5054778;28;20083;-86
2022/03/12 10:35:25;;;;;;;5.67;2.70;;;;;;;12.44;58.32;101596.75;5035775;28;20034;-86
2022/03/12 10:37:53;;;;;;;5.40;2.60;;;;;;;12.47;58.83;101594.09;5034949;28;20071;-87
2022/03/12 10:40:21;;;;;;;5.18;2.50;;;;;;;12.54;58.83;101609.66;5033191;28;20029;-85
2022/03/12 10:42:49;;;;;;;5.35;2.67;;;;;;;12.62;57.67;101610.41;5034335;28;20059;-84
2022/03/12 10:45:17;;;;;;;4.47;2.90;;;;;;;12.69;57.67;101619.03;5035587;28;20036;-85
2022/03/12 10:47:49;;;;;;;4.78;2.63;;;;;;;12.76;57.25;101610.28;5034020;28;20034;-85
2022/03/12 10:50:20;;;;;;;6.25;2.53;;;;;;;12.89;56.61;101606.63;5034917;28;20037;-85
2022/03/12 10:52:52;;;;;;;7.28;2.90;;;;;;;12.94;57.17;101606.59;5042127;28;20054;-85
2022/03/12 10:55:25;;;;;;;4.47;2.47;;;;;;;13.06;57.10;101603.78;5051336;28;20543;-85
2022/03/12 10:58:07;;;;;;;3.63;2.38;;;;;;;13.22;56.42;101600.97;5054267;28;20029;-84
2022/03/12 11:00:37;;;;;;;4.50;2.38;;;;;;;13.38;57.16;101599.88;5054108;28;20051;-85
2022/03/12 11:03:05;;;;;;;3.40;2.35;;;;;;;13.57;54.03;101600.47;5037299;28;20037;-84
2022/03/12 11:05:35;;;;;;;6.65;2.40;;;;;;;13.74;55.01;101602.81;5033568;28;20034;-85
2022/03/12 11:08:14;;;;;;;4.60;2.40;;;;;;;13.87;55.40;101602.59;5033379;28;20041;-82
2022/03/12 11:10:59;;;;;;;3.35;2.25;;;;;;;14.04;54.48;101615.38;5033654;28;20083;-83
2022/03/12 11:13:34;;;;;;;6.45;2.58;;;;;;;14.14;53.36;101623.91;5034053;28;20029;-84
2022/03/12 11:16:31;;;;;;;4.60;2.53;;;;;;;14.14;53.67;101614.31;5034495;28;20121;-82
2022/03/12 11:19:06;;;;;;;5.38;2.30;;;;;;;14.16;53.71;101617.75;5034017;28;20100;-83
2022/03/12 11:21:52;;;;;;;6.32;2.83;;;;;;;14.23;52.81;101609.84;5036712;28;20039;-82
2022/03/12 11:24:22;;;;;;;6.05;2.80;;;;;;;14.27;52.26;101611.47;5052808;28;20503;-82
2022/03/12 11:26:58;;;;;;;7.85;2.78;;;;;;;14.32;51.91;101615.72;5053875;28;20108;-82
2022/03/12 11:29:28;;;;;;;3.95;2.38;;;;;;;14.21;52.49;101608.13;5053386;28;20021;-82
2022/03/12 11:31:58;;;;;;;4.70;2.53;;;;;;;14.34;52.12;101610.50;5053162;28;20075;-82
2022/03/12 11:34:41;;;;;;;4.95;2.28;;;;;;;14.34;51.92;101607.88;5053315;28;20485;-82
2022/03/12 11:37:14;;;;;;;5.07;2.30;;;;;;;14.46;51.72;101606.78;5052764;28;20090;-82
2022/03/12 11:39:47;;;;;;;4.90;2.22;;;;;;;14.51;51.74;101600.56;5052086;28;20095;-82